Time;durP1;ratioP1;P1;durP2;ratioP2;P2;SDS_P1;SDS_P2;PMS_P1;PMS_P2;Temp;Humidity;BMP_temperature;BMP_pressure;BME280_temperature;BME280_humidity;BME280_pressure;Samples;Min_cycle;Max_cycle;Signal;HPM_P1;HPM_P2
2023/12/31 00:00:23;;;;;;;10.75;4.05;;;;;;;10.13;56.89;101051.91;4995366;28;20040;-39
2023/12/31 00:02:49;;;;;;;10.88;3.92;;;;;;;10.13;56.99;101051.91;4994813;28;20540;-41
2023/12/31 00:05:14;;;;;;;8.57;4.28;;;;;;;10.13;56.94;101051.91;5000876;28;20030;-40
2023/12/31 00:07:40;;;;;;;7.80;4.47;;;;;;;10.15;57.02;101047.41;5002151;28;20092;-41
2023/12/31 00:10:05;;;;;;;12.05;4.53;;;;;;;10.15;56.87;101047.41;5000810;28;20029;-40
2023/12/31 00:12:31;;;;;;;10.95;4.78;;;;;;;10.16;57.01;101043.84;5003566;28;20034;-42
2023/12/31 00:14:56;;;;;;;14.00;4.35;;;;;;;10.17;56.99;101040.31;4983401;28;24129;-40
2023/12/31 00:17:22;;;;;;;8.65;4.03;;;;;;;10.18;56.96;101036.75;5002600;28;20492;-43
2023/12/31 00:19:47;;;;;;;7.15;3.83;;;;;;;10.20;56.93;101041.00;5000871;28;20033;-42
2023/12/31 00:22:13;;;;;;;9.65;4.68;;;;;;;10.21;56.80;101044.44;5001546;28;20039;-43
2023/12/31 00:24:38;;;;;;;7.28;3.88;;;;;;;10.21;57.06;101044.44;4996505;28;20029;-41
2023/12/31 00:27:04;;;;;;;3.50;2.33;;;;;;;10.22;57.03;101043.53;5000022;28;20036;-42
2023/12/31 00:29:30;;;;;;;6.43;3.50;;;;;;;10.23;57.14;101034.72;5001902;28;20030;-42
2023/12/31 00:31:55;;;;;;;9.60;4.28;;;;;;;10.22;57.14;101035.63;5000999;28;20508;-39
2023/12/31 00:34:21;;;;;;;8.02;4.03;;;;;;;10.25;56.96;101032.03;5001167;28;20092;-41
2023/12/31 00:36:46;;;;;;;10.32;4.63;;;;;;;10.25;57.12;101042.53;5001837;28;20093;-40
2023/12/31 00:39:11;;;;;;;12.27;4.95;;;;;;;10.25;57.16;101040.75;5001936;28;20030;-41
2023/12/31 00:41:37;;;;;;;10.13;4.47;;;;;;;10.25;57.13;101051.25;5002455;28;20058;-41
2023/12/31 00:44:02;;;;;;;9.05;4.22;;;;;;;10.28;57.07;101045.84;5003834;28;20072;-41
2023/12/31 00:46:28;;;;;;;16.23;4.80;;;;;;;10.29;57.01;101047.56;5001571;28;20045;-41
2023/12/31 00:48:53;;;;;;;9.52;4.38;;;;;;;10.30;57.14;101041.38;5007640;28;20033;-41
2023/12/31 00:51:19;;;;;;;10.32;4.25;;;;;;;10.31;57.18;101040.44;5006444;28;20026;-41
2023/12/31 00:53:44;;;;;;;9.25;3.85;;;;;;;10.32;57.14;101042.16;5005865;28;20054;-41
2023/12/31 00:56:10;;;;;;;10.02;4.57;;;;;;;10.22;57.08;101040.91;5002952;28;20038;-42
2023/12/31 00:58:36;;;;;;;7.65;3.67;;;;;;;10.24;57.52;101039.03;5002365;28;20050;-41
2023/12/31 01:01:01;;;;;;;10.70;4.15;;;;;;;10.26;57.38;101047.72;5001916;28;20140;-41
2023/12/31 01:03:26;;;;;;;9.40;4.30;;;;;;;10.27;57.41;101048.56;4999405;28;20112;-40
2023/12/31 01:05:52;;;;;;;7.53;3.80;;;;;;;10.27;57.74;101040.69;5002534;28;20400;-41
2023/12/31 01:08:17;;;;;;;10.25;4.65;;;;;;;10.31;57.32;101042.19;5003843;28;20043;-41
2023/12/31 01:10:43;;;;;;;10.73;4.53;;;;;;;10.32;57.14;101042.16;5000384;28;20045;-40
2023/12/31 01:13:08;;;;;;;10.65;4.85;;;;;;;10.32;57.40;101039.50;5001002;28;20429;-40
2023/12/31 01:15:33;;;;;;;9.52;4.63;;;;;;;10.34;57.42;101042.91;4995969;28;20279;-40
2023/12/31 01:17:59;;;;;;;10.38;5.60;;;;;;;10.34;57.37;101045.56;4978844;28;20031;-42
2023/12/31 01:20:24;;;;;;;11.27;4.72;;;;;;;10.37;57.44;101053.25;5002378;28;20116;-40
2023/12/31 01:22:50;;;;;;;9.05;4.38;;;;;;;10.41;57.28;101045.25;5007631;28;20037;-43
2023/12/31 01:25:15;;;;;;;10.00;4.03;;;;;;;10.38;57.49;101035.75;5008831;28;20034;-41
2023/12/31 01:27:40;;;;;;;10.85;4.93;;;;;;;10.39;57.70;101041.84;5008030;28;20030;-40
2023/12/31 01:30:06;;;;;;;13.10;4.53;;;;;;;10.31;57.80;101045.69;5002814;28;20380;-41
2023/12/31 01:32:32;;;;;;;8.05;4.53;;;;;;;10.34;57.69;101052.56;5004360;28;20113;-42
2023/12/31 01:35:02;;;;;;;10.73;4.57;;;;;;;10.32;57.98;101047.41;5004554;28;20088;-42
2023/12/31 01:37:27;;;;;;;11.60;4.75;;;;;;;10.26;58.17;101045.06;5006693;28;20084;-40
2023/12/31 01:39:53;;;;;;;10.32;4.70;;;;;;;10.26;58.09;101036.34;5002797;28;20030;-42
2023/12/31 01:42:18;;;;;;;6.88;4.05;;;;;;;10.30;57.95;101033.47;5004542;28;20076;-41
2023/12/31 01:44:43;;;;;;;9.55;4.85;;;;;;;10.34;57.92;101039.41;5002530;28;20034;-41
2023/12/31 01:47:10;;;;;;;10.77;4.60;;;;;;;10.36;58.07;101038.41;5006089;28;20056;-42
2023/12/31 01:49:35;;;;;;;12.70;4.50;;;;;;;10.37;57.98;101040.09;5002092;28;20597;-41
2023/12/31 01:52:01;;;;;;;11.35;4.85;;;;;;;10.42;57.80;101025.91;5007456;28;20021;-40
2023/12/31 01:54:28;;;;;;;6.63;3.30;;;;;;;10.44;57.99;101024.03;4971887;28;20057;-43
2023/12/31 01:56:54;;;;;;;9.13;4.35;;;;;;;10.44;57.87;101018.78;4989659;28;20535;-42
2023/12/31 01:59:21;;;;;;;8.88;4.55;;;;;;;10.47;57.85;101021.25;5001059;28;20042;-41
2023/12/31 02:01:48;;;;;;;8.82;3.33;;;;;;;10.47;57.87;101016.00;5004036;28;20053;-41
2023/12/31 02:04:15;;;;;;;8.70;4.43;;;;;;;10.48;57.76;101015.06;5006116;28;20065;-41
2023/12/31 02:06:40;;;;;;;8.95;4.53;;;;;;;10.49;57.80;101003.63;5005304;28;20034;-41
2023/12/31 02:09:06;;;;;;;10.88;5.22;;;;;;;10.47;57.73;100997.56;5007238;28;20036;-41
2023/12/31 02:11:32;;;;;;;9.93;4.20;;;;;;;10.49;57.79;100996.56;5002682;28;20109;-40
2023/12/31 02:13:58;;;;;;;13.02;4.32;;;;;;;10.50;57.73;101000.06;5004410;28;20759;-39
2023/12/31 02:16:24;;;;;;;10.07;3.95;;;;;;;10.50;57.64;100994.78;4983252;28;20754;-41
2023/12/31 02:18:49;;;;;;;7.88;4.15;;;;;;;10.48;57.78;100989.59;5003744;28;20103;-38
2023/12/31 02:21:15;;;;;;;10.10;4.28;;;;;;;10.47;57.79;100976.53;5006673;28;20054;-42
2023/12/31 02:23:41;;;;;;;6.03;3.40;;;;;;;10.49;57.82;100972.03;5006292;28;20157;-40
2023/12/31 02:26:09;;;;;;;8.55;3.95;;;;;;;10.49;58.00;100974.66;5004291;28;20038;-41
2023/12/31 02:28:35;;;;;;;6.47;3.78;;;;;;;10.46;58.21;100964.31;5003885;28;20675;-42
2023/12/31 02:31:02;;;;;;;7.88;4.00;;;;;;;10.43;58.29;100964.47;5004378;28;20091;-39
2023/12/31 02:33:27;;;;;;;10.45;4.95;;;;;;;10.40;58.25;100967.25;5008046;28;20084;-41
2023/12/31 02:35:53;;;;;;;9.20;3.85;;;;;;;10.41;58.23;100966.31;5003556;28;20042;-42
2023/12/31 02:38:18;;;;;;;9.82;3.90;;;;;;;10.39;58.21;100968.19;5004899;28;20021;-42
2023/12/31 02:40:43;;;;;;;7.93;4.30;;;;;;;10.36;58.23;100959.47;5006862;28;20038;-41
2023/12/31 02:43:09;;;;;;;9.45;3.47;;;;;;;10.32;58.29;100963.22;5007198;28;20038;-41
2023/12/31 02:45:34;;;;;;;11.75;3.67;;;;;;;10.31;58.12;100953.66;5005553;28;20488;-43
2023/12/31 02:48:00;;;;;;;8.27;3.40;;;;;;;10.30;58.08;100957.19;5003655;28;20118;-40
2023/12/31 02:50:25;;;;;;;10.13;3.38;;;;;;;10.28;58.07;100959.06;5005825;28;20189;-41
2023/12/31 02:52:53;;;;;;;12.32;3.60;;;;;;;10.25;58.05;100951.31;5007626;28;20085;-41
2023/12/31 02:55:19;;;;;;;9.05;3.38;;;;;;;10.22;57.88;100948.84;5005969;28;20036;-40
2023/12/31 02:57:44;;;;;;;8.90;3.88;;;;;;;10.20;58.01;100945.47;5000744;28;20025;-42
2023/12/31 03:00:10;;;;;;;5.10;3.00;;;;;;;10.18;57.78;100937.66;5004717;28;20057;-43
2023/12/31 03:02:36;;;;;;;7.30;3.22;;;;;;;10.15;57.87;100940.44;5007824;28;20030;-41
2023/12/31 03:05:02;;;;;;;8.60;3.00;;;;;;;10.13;57.95;100942.31;5005117;28;20056;-41
2023/12/31 03:07:27;;;;;;;5.72;2.97;;;;;;;10.11;58.06;100933.66;5001873;28;20481;-41
2023/12/31 03:09:53;;;;;;;7.80;3.00;;;;;;;10.07;58.32;100932.13;5004248;28;20038;-41
2023/12/31 03:12:18;;;;;;;5.90;2.92;;;;;;;10.05;58.35;100932.22;4989547;28;20041;-40
2023/12/31 03:14:44;;;;;;;10.80;3.28;;;;;;;10.03;58.50;100934.06;5003226;28;20036;-42
2023/12/31 03:17:09;;;;;;;6.40;2.88;;;;;;;10.03;58.35;100931.44;4990758;28;20046;-43
2023/12/31 03:19:35;;;;;;;4.60;2.63;;;;;;;10.05;58.24;100924.31;5005608;28;20042;-41
2023/12/31 03:22:01;;;;;;;4.35;2.67;;;;;;;10.03;58.26;100917.44;5002015;28;20753;-43
2023/12/31 03:24:27;;;;;;;11.27;3.88;;;;;;;10.03;58.12;100925.31;5004869;28;20049;-39
2023/12/31 03:26:52;;;;;;;9.57;2.97;;;;;;;10.03;58.22;100923.56;4989365;28;20037;-42
2023/12/31 03:29:18;;;;;;;8.10;4.38;;;;;;;10.03;58.30;100922.69;5002338;28;20063;-41
2023/12/31 03:31:43;;;;;;;5.25;2.90;;;;;;;10.02;58.03;100932.38;5004267;28;20056;-41
2023/12/31 03:34:09;;;;;;;8.75;3.25;;;;;;;9.98;58.56;100925.56;5004457;28;20045;-41
2023/12/31 03:36:35;;;;;;;6.80;3.15;;;;;;;9.96;58.79;100924.78;5003689;28;20081;-41
2023/12/31 03:39:00;;;;;;;7.50;3.15;;;;;;;9.95;58.53;100930.97;5005975;28;20411;-38
2023/12/31 03:41:26;;;;;;;5.65;3.08;;;;;;;9.99;58.58;100937.78;5005864;28;20041;-42
2023/12/31 03:43:51;;;;;;;7.38;3.03;;;;;;;9.97;58.62;100931.75;5001201;28;20044;-41
2023/12/31 03:46:17;;;;;;;6.13;3.20;;;;;;;9.99;58.49;100919.38;5002238;28;20053;-40
2023/12/31 03:48:42;;;;;;;6.95;2.50;;;;;;;9.99;58.29;100919.38;5002053;28;20033;-40
2023/12/31 03:51:09;;;;;;;7.88;2.80;;;;;;;10.02;58.51;100910.47;5002272;28;20036;-40
2023/12/31 03:53:35;;;;;;;5.97;3.03;;;;;;;9.95;58.75;100911.75;5004270;28;20042;-42
2023/12/31 03:56:00;;;;;;;5.57;2.45;;;;;;;9.95;58.84;100904.69;5005745;28;20108;-40
2023/12/31 03:58:25;;;;;;;5.18;2.67;;;;;;;9.98;58.89;100901.91;5005264;28;20052;-40
2023/12/31 04:00:51;;;;;;;9.05;2.97;;;;;;;9.99;58.80;100900.97;5003779;28;20057;-42
2023/12/31 04:03:16;;;;;;;13.57;3.83;;;;;;;10.01;58.70;100904.38;5004061;28;20494;-42
2023/12/31 04:05:41;;;;;;;11.13;4.55;;;;;;;10.00;58.66;100910.56;5003235;28;20493;-41
2023/12/31 04:08:07;;;;;;;9.30;4.43;;;;;;;10.01;58.74;100911.41;5004987;28;20034;-41
2023/12/31 04:10:32;;;;;;;6.07;3.45;;;;;;;10.01;58.67;100908.78;5003169;28;20468;-38
2023/12/31 04:12:58;;;;;;;4.55;2.88;;;;;;;10.00;58.71;100907.06;5001759;28;20468;-40
2023/12/31 04:15:23;;;;;;;6.55;2.72;;;;;;;9.99;58.73;100913.25;4982145;28;20037;-42
2023/12/31 04:17:49;;;;;;;7.53;3.15;;;;;;;9.94;59.01;100915.28;4999329;28;20029;-39
2023/12/31 04:20:14;;;;;;;7.57;2.50;;;;;;;9.87;59.24;100904.25;5005522;28;20163;-41
2023/12/31 04:22:40;;;;;;;6.50;2.72;;;;;;;9.88;59.28;100908.59;5006905;28;20069;-41
2023/12/31 04:25:06;;;;;;;6.78;3.15;;;;;;;9.92;58.92;100896.97;5007993;28;20037;-41
2023/12/31 04:27:31;;;;;;;6.28;2.78;;;;;;;9.92;58.81;100891.69;5008071;28;20385;-41
2023/12/31 04:29:57;;;;;;;4.32;2.78;;;;;;;9.91;58.86;100892.63;5006149;28;20033;-44
2023/12/31 04:32:25;;;;;;;9.55;2.97;;;;;;;9.90;58.66;100896.22;5006093;28;20045;-41
2023/12/31 04:34:50;;;;;;;7.63;2.78;;;;;;;9.90;58.50;100897.06;5005242;28;20038;-41
2023/12/31 04:37:16;;;;;;;4.43;2.83;;;;;;;9.89;58.50;100894.50;5007175;28;20147;-40
2023/12/31 04:39:41;;;;;;;8.60;2.72;;;;;;;9.87;58.34;100888.47;5006677;28;20120;-40
2023/12/31 04:42:06;;;;;;;8.55;2.35;;;;;;;9.84;58.45;100881.59;5007509;28;20080;-40
2023/12/31 04:44:32;;;;;;;6.15;2.78;;;;;;;9.83;58.29;100889.56;5009667;28;20499;-39
2023/12/31 04:46:57;;;;;;;5.50;2.42;;;;;;;9.81;58.28;100884.41;5007136;28;20088;-38
2023/12/31 04:49:22;;;;;;;8.30;3.03;;;;;;;9.80;58.42;100882.69;5008490;28;20137;-39
2023/12/31 04:51:48;;;;;;;7.00;2.50;;;;;;;9.79;58.30;100880.13;5005547;28;20038;-40
2023/12/31 04:54:13;;;;;;;10.02;3.30;;;;;;;9.77;58.11;100878.44;5008519;28;20034;-39
2023/12/31 04:56:39;;;;;;;7.25;2.15;;;;;;;9.74;58.24;100878.63;5007926;28;20855;-40
2023/12/31 04:59:04;;;;;;;8.63;4.05;;;;;;;9.73;58.27;100879.53;5006224;28;20026;-40
2023/12/31 05:01:32;;;;;;;6.50;3.05;;;;;;;9.69;58.32;100878.00;5004214;28;20045;-40
2023/12/31 05:04:00;;;;;;;5.78;2.55;;;;;;;9.70;58.31;100871.81;5004847;28;20029;-40
2023/12/31 05:06:25;;;;;;;5.10;2.15;;;;;;;9.67;58.18;100866.72;5005736;28;20562;-40
2023/12/31 05:08:51;;;;;;;4.47;2.80;;;;;;;9.63;58.26;100857.28;5004809;28;20030;-40
2023/12/31 05:11:17;;;;;;;7.65;2.75;;;;;;;9.61;58.33;100860.00;5006173;28;20042;-43
2023/12/31 05:13:43;;;;;;;9.43;2.95;;;;;;;9.62;58.40;100850.31;5006885;28;20033;-39
2023/12/31 05:16:15;;;;;;;5.80;2.42;;;;;;;9.62;58.34;100847.69;5004550;28;20055;-40
2023/12/31 05:18:46;;;;;;;7.70;2.70;;;;;;;9.58;58.55;100851.44;5005381;28;20037;-39
2023/12/31 05:21:12;;;;;;;9.00;2.60;;;;;;;9.52;58.38;100846.50;5007182;28;20049;-42
2023/12/31 05:23:38;;;;;;;8.85;2.80;;;;;;;9.54;58.67;100848.09;5007820;28;20041;-41
2023/12/31 05:26:03;;;;;;;7.43;3.13;;;;;;;9.51;58.56;100850.03;5007334;28;20411;-42
2023/12/31 05:28:29;;;;;;;9.27;3.15;;;;;;;9.46;58.94;100838.00;5004768;28;20104;-41
2023/12/31 05:30:54;;;;;;;5.72;2.90;;;;;;;9.44;58.88;100834.63;5001172;28;20041;-41
2023/12/31 05:33:20;;;;;;;5.15;2.58;;;;;;;9.25;59.54;100833.84;5004465;28;20180;-41
2023/12/31 05:35:45;;;;;;;10.25;3.05;;;;;;;9.32;59.71;100832.59;5005210;28;20484;-42
2023/12/31 05:38:10;;;;;;;4.90;2.80;;;;;;;9.24;59.69;100834.78;5007904;28;20160;-41
2023/12/31 05:40:37;;;;;;;11.13;3.53;;;;;;;9.28;59.50;100844.22;5004004;28;20489;-41
2023/12/31 05:43:02;;;;;;;4.88;2.20;;;;;;;9.28;59.50;100838.94;5006297;28;20065;-43
2023/12/31 05:45:28;;;;;;;5.93;2.42;;;;;;;9.29;59.61;100830.16;5008203;28;20068;-42
2023/12/31 05:47:53;;;;;;;7.57;2.92;;;;;;;9.30;59.42;100829.22;5007029;28;20034;-41
2023/12/31 05:50:18;;;;;;;12.57;2.55;;;;;;;9.29;59.44;100827.53;5006201;28;20065;-42
2023/12/31 05:52:44;;;;;;;5.60;2.90;;;;;;;9.29;59.54;100830.16;5005491;28;20044;-40
2023/12/31 05:55:09;;;;;;;6.00;2.30;;;;;;;9.31;59.35;100828.25;5002873;28;20077;-41
2023/12/31 05:57:35;;;;;;;6.45;3.20;;;;;;;9.31;59.37;100815.13;5006427;28;20042;-41
2023/12/31 06:00:02;;;;;;;7.20;2.80;;;;;;;9.36;59.16;100815.75;5008612;28;20100;-40
2023/12/31 06:02:27;;;;;;;8.68;3.22;;;;;;;9.37;59.35;100816.63;5006891;28;20033;-40
2023/12/31 06:04:52;;;;;;;8.60;3.35;;;;;;;9.39;59.15;100812.97;5006197;28;20042;-42
2023/12/31 06:07:18;;;;;;;5.32;2.75;;;;;;;9.40;59.35;100816.44;4991107;28;20117;-40
2023/12/31 06:09:44;;;;;;;8.90;3.30;;;;;;;9.42;59.37;100817.22;5003066;28;20022;-41
2023/12/31 06:12:10;;;;;;;7.57;3.20;;;;;;;9.39;59.31;100806.88;5003381;28;20029;-40
2023/12/31 06:14:35;;;;;;;9.70;3.40;;;;;;;9.41;59.50;100802.38;5003236;28;20044;-40
2023/12/31 06:17:01;;;;;;;11.85;3.25;;;;;;;9.42;59.19;100799.69;5004640;28;20034;-40
2023/12/31 06:19:26;;;;;;;9.43;2.85;;;;;;;9.42;59.14;100791.81;5005149;28;20060;-41
2023/12/31 06:21:52;;;;;;;8.95;2.42;;;;;;;9.45;59.20;100782.91;5004208;28;20041;-42
2023/12/31 06:24:17;;;;;;;7.13;3.20;;;;;;;9.44;59.30;100789.97;5004582;28;20113;-41
2023/12/31 06:26:43;;;;;;;5.45;2.70;;;;;;;9.45;59.21;100777.66;5004708;28;20148;-41
2023/12/31 06:29:08;;;;;;;7.45;3.33;;;;;;;9.42;58.99;100794.44;4991827;28;20025;-39
2023/12/31 06:31:34;;;;;;;7.30;3.97;;;;;;;9.41;59.23;100790.13;5007369;28;20026;-40
2023/12/31 06:33:59;;;;;;;8.07;3.22;;;;;;;9.41;59.16;100790.13;5006866;28;20038;-41
2023/12/31 06:36:24;;;;;;;6.05;2.92;;;;;;;9.39;59.17;100789.34;5007707;28;20037;-39
2023/12/31 06:38:50;;;;;;;7.50;2.92;;;;;;;9.39;59.06;100789.34;5002560;28;20457;-41
2023/12/31 06:41:19;;;;;;;6.90;3.53;;;;;;;9.44;59.06;100796.97;5007416;28;20499;-37
2023/12/31 06:43:44;;;;;;;8.30;3.95;;;;;;;9.39;59.11;100797.22;5001664;28;20069;-41
2023/12/31 06:46:10;;;;;;;7.22;3.05;;;;;;;9.37;59.15;100799.06;5005511;28;20116;-40
2023/12/31 06:48:35;;;;;;;11.90;3.55;;;;;;;9.34;59.03;100791.34;5005441;28;20161;-40
2023/12/31 06:51:00;;;;;;;5.70;2.97;;;;;;;9.29;59.08;100785.50;5003887;28;20530;-39
2023/12/31 06:53:26;;;;;;;8.40;3.55;;;;;;;9.27;59.36;100790.00;5001901;28;20038;-39
2023/12/31 06:55:51;;;;;;;12.63;5.43;;;;;;;9.24;59.31;100793.59;5005354;28;20030;-38
2023/12/31 06:58:16;;;;;;;11.05;5.80;;;;;;;9.22;59.37;100790.22;5002170;28;20953;-40
2023/12/31 07:00:42;;;;;;;16.20;6.10;;;;;;;9.21;59.39;100779.78;5004778;28;20029;-39
2023/12/31 07:03:07;;;;;;;12.40;5.25;;;;;;;9.19;59.37;100785.13;5003175;28;20504;-41
2023/12/31 07:05:33;;;;;;;13.98;4.85;;;;;;;9.16;59.57;100782.66;5002160;28;20042;-41
2023/12/31 07:07:58;;;;;;;4.57;2.80;;;;;;;9.16;59.46;100780.03;4985746;28;20160;-41
2023/12/31 07:10:23;;;;;;;16.33;4.60;;;;;;;9.11;59.88;100784.66;5002010;28;20036;-39
2023/12/31 07:12:49;;;;;;;10.05;3.45;;;;;;;9.10;60.14;100775.09;5002008;28;21028;-39
2023/12/31 07:15:15;;;;;;;10.77;4.13;;;;;;;9.13;59.97;100777.56;5003604;28;20022;-39
2023/12/31 07:17:41;;;;;;;12.60;4.50;;;;;;;9.06;60.14;100779.66;5004845;28;20041;-40
2023/12/31 07:20:07;;;;;;;11.85;4.20;;;;;;;9.07;60.32;100767.38;4983653;28;20030;-39
2023/12/31 07:22:32;;;;;;;10.90;4.30;;;;;;;9.02;60.41;100767.59;5004798;28;20037;-39
2023/12/31 07:25:00;;;;;;;8.35;4.35;;;;;;;9.05;60.28;100774.50;5004909;28;20026;-41
2023/12/31 07:27:25;;;;;;;10.32;4.40;;;;;;;9.02;60.72;100769.38;5005392;28;20038;-42
2023/12/31 07:29:51;;;;;;;13.13;5.65;;;;;;;9.05;60.18;100767.44;5004954;28;20104;-41
2023/12/31 07:32:16;;;;;;;11.73;4.38;;;;;;;9.06;60.27;100768.31;5006239;28;20033;-40
2023/12/31 07:34:42;;;;;;;10.18;4.32;;;;;;;9.03;60.43;100771.91;5002191;28;20060;-40
2023/12/31 07:37:07;;;;;;;12.63;5.15;;;;;;;9.11;60.35;100775.03;5005365;28;20025;-40
2023/12/31 07:39:32;;;;;;;9.25;4.90;;;;;;;9.18;60.16;100782.56;5004496;28;20037;-41
2023/12/31 07:41:58;;;;;;;16.27;6.55;;;;;;;9.22;60.14;100773.63;4999329;28;20361;-40
2023/12/31 07:44:23;;;;;;;15.23;6.43;;;;;;;9.21;60.40;100775.41;5003016;28;20028;-40
2023/12/31 07:46:49;;;;;;;19.35;5.85;;;;;;;9.25;60.52;100774.28;5001526;28;20051;-40
2023/12/31 07:49:15;;;;;;;13.77;5.47;;;;;;;9.29;60.50;100781.09;5001626;28;20487;-40
2023/12/31 07:51:40;;;;;;;12.52;6.38;;;;;;;9.34;60.42;100778.22;5004406;28;20113;-39
2023/12/31 07:54:06;;;;;;;13.48;6.35;;;;;;;9.33;60.59;100775.69;5002825;28;20045;-41
2023/12/31 07:56:31;;;;;;;17.45;5.68;;;;;;;9.30;60.59;100768.84;5006454;28;20043;-40
2023/12/31 07:58:57;;;;;;;15.00;5.75;;;;;;;9.40;60.62;100764.78;5003286;28;20153;-41
2023/12/31 08:01:22;;;;;;;9.57;4.95;;;;;;;9.45;60.30;100760.13;5005266;28;20080;-40
2023/12/31 08:03:49;;;;;;;10.90;5.30;;;;;;;9.46;60.59;100759.19;5004123;28;20377;-39
2023/12/31 08:06:14;;;;;;;13.35;6.30;;;;;;;9.53;60.48;100758.88;5001434;28;20049;-40
2023/12/31 08:08:40;;;;;;;10.25;4.75;;;;;;;9.53;60.52;100753.63;5002518;28;20065;-40
2023/12/31 08:11:05;;;;;;;13.93;5.35;;;;;;;9.56;60.66;100738.53;5003349;28;20034;-41
2023/12/31 08:13:31;;;;;;;10.90;4.68;;;;;;;9.56;60.73;100750.84;5004603;28;20455;-38
2023/12/31 08:15:56;;;;;;;12.27;4.32;;;;;;;9.55;60.79;100757.03;5003858;28;20080;-40
2023/12/31 08:18:22;;;;;;;16.02;5.13;;;;;;;9.59;60.67;100761.19;5004462;28;20153;-39
2023/12/31 08:20:47;;;;;;;18.10;5.45;;;;;;;9.51;61.08;100763.34;5002673;28;20505;-38
2023/12/31 08:23:12;;;;;;;12.52;6.22;;;;;;;9.41;61.30;100758.59;5006576;28;20039;-40
2023/12/31 08:25:38;;;;;;;16.55;6.15;;;;;;;9.54;60.94;100766.66;4999770;28;20034;-41
2023/12/31 08:28:04;;;;;;;12.75;5.25;;;;;;;9.49;60.86;100760.81;5002779;28;20126;-38
2023/12/31 08:30:29;;;;;;;13.60;5.05;;;;;;;9.51;60.98;100766.00;5004270;28;20034;-38
2023/12/31 08:32:54;;;;;;;9.88;5.03;;;;;;;9.63;60.78;100760.06;4997316;28;20038;-40
2023/12/31 08:35:22;;;;;;;15.88;6.07;;;;;;;9.64;60.67;100760.94;5004107;28;20104;-39
2023/12/31 08:37:48;;;;;;;15.00;6.93;;;;;;;9.50;60.92;100754.66;5004236;28;20030;-39
2023/12/31 08:40:14;;;;;;;12.05;6.10;;;;;;;9.49;60.69;100746.84;5004985;28;20059;-41
2023/12/31 08:42:40;;;;;;;13.65;5.25;;;;;;;9.53;61.13;100749.19;5001481;28;20083;-40
2023/12/31 08:45:10;;;;;;;11.10;5.43;;;;;;;9.64;60.90;100751.25;5004863;28;20402;-40
2023/12/31 08:47:36;;;;;;;14.65;5.70;;;;;;;9.66;60.64;100749.41;5000900;28;20033;-41
2023/12/31 08:50:07;;;;;;;12.98;5.93;;;;;;;9.69;60.65;100751.00;5001935;28;20033;-40
2023/12/31 08:52:33;;;;;;;17.23;5.40;;;;;;;9.64;60.78;100747.81;5003003;28;20765;-39
2023/12/31 08:54:58;;;;;;;13.82;4.45;;;;;;;9.52;60.68;100749.31;5000423;28;20054;-38
2023/12/31 08:57:24;;;;;;;22.98;9.45;;;;;;;9.62;61.00;100747.88;4989792;28;20041;-39
2023/12/31 08:59:49;;;;;;;13.90;5.60;;;;;;;9.67;60.92;100758.16;5000195;28;20430;-40
2023/12/31 09:02:15;;;;;;;16.50;6.78;;;;;;;9.75;60.61;100748.06;5000656;28;20498;-39
2023/12/31 09:04:40;;;;;;;16.63;6.93;;;;;;;9.69;60.59;100745.75;5005184;28;20134;-41
2023/12/31 09:07:05;;;;;;;17.50;6.32;;;;;;;9.76;60.66;100739.25;4999289;28;20034;-39
2023/12/31 09:09:31;;;;;;;12.85;6.22;;;;;;;9.83;60.41;100740.59;5004161;28;20066;-38
2023/12/31 09:11:56;;;;;;;12.40;5.15;;;;;;;9.81;60.54;100739.84;5007157;28;20037;-41
2023/12/31 09:14:21;;;;;;;15.15;5.43;;;;;;;9.90;60.61;100741.13;5007923;28;20065;-42
2023/12/31 09:16:47;;;;;;;18.00;7.03;;;;;;;9.95;60.65;100739.09;5003885;28;20052;-42
2023/12/31 09:19:12;;;;;;;16.17;6.80;;;;;;;9.97;60.45;100739.03;5005456;28;20481;-41
2023/12/31 09:21:38;;;;;;;14.60;6.05;;;;;;;9.96;60.32;100732.91;5004549;28;20041;-41
2023/12/31 09:24:03;;;;;;;42.97;14.38;;;;;;;10.01;60.21;100723.00;5006370;28;20029;-40
2023/12/31 09:26:29;;;;;;;20.13;9.30;;;;;;;10.04;60.35;100717.56;5009789;28;20488;-42
2023/12/31 09:28:54;;;;;;;18.40;7.85;;;;;;;10.12;60.30;100718.91;5004052;28;20044;-40
2023/12/31 09:31:24;;;;;;;14.13;7.25;;;;;;;10.06;60.15;100726.19;5005328;28;20049;-40
2023/12/31 09:33:50;;;;;;;11.13;5.72;;;;;;;10.15;60.12;100724.00;5004729;28;20034;-39
2023/12/31 09:36:15;;;;;;;17.23;6.55;;;;;;;10.27;59.95;100712.78;5001457;28;20040;-42
2023/12/31 09:38:41;;;;;;;12.57;5.43;;;;;;;10.24;59.68;100720.84;4983176;28;20033;-38
2023/12/31 09:41:06;;;;;;;12.43;4.80;;;;;;;10.31;59.71;100713.44;5001983;28;20133;-42
2023/12/31 09:43:34;;;;;;;10.43;5.05;;;;;;;10.15;59.30;100711.69;4997944;28;20705;-41
2023/12/31 09:46:00;;;;;;;12.45;4.82;;;;;;;10.09;59.66;100708.53;5004228;28;20453;-40
2023/12/31 09:48:26;;;;;;;15.77;6.40;;;;;;;10.15;59.76;100710.84;5003407;28;20037;-41
2023/12/31 09:50:51;;;;;;;44.22;20.02;;;;;;;10.09;59.80;100698.03;5006428;28;20033;-40
2023/12/31 09:53:19;;;;;;;14.32;6.40;;;;;;;10.06;59.76;100691.19;5004381;28;20034;-39
2023/12/31 09:55:45;;;;;;;10.02;4.95;;;;;;;10.14;60.08;100690.75;5002281;28;20042;-39
2023/12/31 09:58:12;;;;;;;11.68;5.43;;;;;;;10.16;59.88;100679.19;5004021;28;20044;-39
2023/12/31 10:00:38;;;;;;;18.50;5.68;;;;;;;10.18;59.89;100679.13;4999485;28;20506;-40
2023/12/31 10:03:04;;;;;;;8.95;4.05;;;;;;;10.18;59.78;100677.31;5003815;28;20604;-40
2023/12/31 10:05:32;;;;;;;24.27;8.52;;;;;;;10.17;59.93;100675.63;4999382;28;20513;-38
2023/12/31 10:08:03;;;;;;;10.88;5.25;;;;;;;10.19;59.88;100679.03;5001374;28;20501;-39
2023/12/31 10:10:29;;;;;;;27.23;5.25;;;;;;;10.24;59.86;100676.13;4996867;28;20031;-39
2023/12/31 10:12:54;;;;;;;13.32;4.38;;;;;;;10.20;59.83;100672.00;4984768;28;20048;-41
2023/12/31 10:15:21;;;;;;;12.40;4.57;;;;;;;10.25;59.86;100666.47;5001627;28;20088;-38
2023/12/31 10:17:46;;;;;;;31.15;12.90;;;;;;;10.18;59.54;100660.72;5003971;28;20523;-40
2023/12/31 10:20:12;;;;;;;14.48;5.40;;;;;;;10.25;59.69;100661.22;5000897;28;20046;-41
2023/12/31 10:22:37;;;;;;;14.70;5.00;;;;;;;10.35;59.68;100657.97;5002953;28;20053;-41
2023/12/31 10:25:16;;;;;;;12.35;4.68;;;;;;;10.32;59.24;100655.50;4998968;28;20029;-40
2023/12/31 10:27:48;;;;;;;9.82;3.97;;;;;;;10.45;59.48;100644.28;5001233;28;20081;-39
2023/12/31 10:30:14;;;;;;;10.75;4.00;;;;;;;10.40;59.56;100643.72;5001167;28;20022;-41
2023/12/31 10:32:40;;;;;;;9.80;4.50;;;;;;;10.42;59.46;100647.09;5005487;28;20108;-39
2023/12/31 10:35:06;;;;;;;10.82;4.97;;;;;;;10.39;59.06;100634.13;5005527;28;20034;-40
2023/12/31 10:37:31;;;;;;;13.50;6.25;;;;;;;10.40;59.28;100622.66;5005437;28;20033;-41
2023/12/31 10:39:57;;;;;;;12.85;5.72;;;;;;;10.55;59.65;100621.75;4985429;28;20025;-40
2023/12/31 10:42:23;;;;;;;9.93;4.85;;;;;;;10.71;59.44;100616.44;5000766;28;20048;-42
2023/12/31 10:44:53;;;;;;;14.32;5.03;;;;;;;10.77;59.03;100604.69;5000976;28;20022;-41
2023/12/31 10:47:22;;;;;;;9.70;4.93;;;;;;;10.79;58.90;100608.91;5005305;28;20029;-40
2023/12/31 10:49:49;;;;;;;9.75;4.00;;;;;;;10.78;58.58;100601.94;5000316;28;20060;-40
2023/12/31 10:52:16;;;;;;;25.35;11.38;;;;;;;10.73;58.44;100603.19;5003948;28;20036;-42
2023/12/31 10:54:51;;;;;;;13.98;5.30;;;;;;;10.71;58.79;100590.13;5004404;28;20030;-40
2023/12/31 10:57:19;;;;;;;11.63;5.65;;;;;;;10.62;58.77;100585.41;4983815;28;20079;-42
2023/12/31 10:59:47;;;;;;;10.68;4.10;;;;;;;10.49;58.76;100580.03;4994712;28;20032;-42
2023/12/31 11:02:18;;;;;;;12.07;4.93;;;;;;;10.67;58.86;100584.19;5001608;28;20130;-41
2023/12/31 11:04:47;;;;;;;8.60;4.90;;;;;;;10.60;59.18;100577.59;5000023;28;20566;-40
2023/12/31 11:07:20;;;;;;;10.45;4.65;;;;;;;10.68;58.78;100570.06;5000612;28;20049;-40
2023/12/31 11:09:46;;;;;;;9.77;4.75;;;;;;;10.74;59.01;100562.75;5000036;28;20026;-41
2023/12/31 11:12:16;;;;;;;12.60;4.53;;;;;;;10.71;58.85;100557.69;5001731;28;20646;-41
2023/12/31 11:15:11;;;;;;;11.43;4.00;;;;;;;10.87;58.62;100534.75;5003042;28;20463;-41
2023/12/31 11:18:03;;;;;;;10.20;4.65;;;;;;;10.94;58.81;100527.31;4993680;28;20088;-41